Time;durP1;ratioP1;P1;durP2;ratioP2;P2;SDS_P1;SDS_P2;PMS_P1;PMS_P2;Temp;Humidity;BMP_temperature;BMP_pressure;BME280_temperature;BME280_humidity;BME280_pressure;Samples;Min_cycle;Max_cycle;Signal;HPM_P1;HPM_P2
2022/06/04 00:00:53;;;;;;;0.20;0.20;;;10.70;99.90;;;;;;5057563;28;20446;-79
2022/06/04 00:03:20;;;;;;;0.17;0.17;;;10.70;99.90;;;;;;5057539;28;20448;-79
2022/06/04 00:05:52;;;;;;;0.20;0.20;;;10.70;99.90;;;;;;5060749;28;20450;-79
2022/06/04 00:08:18;;;;;;;0.20;0.20;;;10.60;99.90;;;;;;5064742;28;20498;-79
2022/06/04 00:16:17;;;;;;;0.10;0.10;;;10.70;99.90;;;;;;5061539;28;20490;-79
2022/06/04 00:18:43;;;;;;;0.20;0.20;;;10.70;99.90;;;;;;5047398;28;20452;-79
2022/06/04 00:21:11;;;;;;;0.20;0.20;;;10.60;99.90;;;;;;5064112;28;20512;-79
2022/06/04 00:23:37;;;;;;;0.20;0.20;;;10.60;99.90;;;;;;5060663;28;20197;-79
2022/06/04 00:26:07;;;;;;;0.20;0.20;;;10.60;99.90;;;;;;5063131;28;20443;-79
2022/06/04 00:28:33;;;;;;;0.20;0.20;;;10.50;99.90;;;;;;5036060;28;20580;-79
2022/06/04 00:30:59;;;;;;;0.20;0.20;;;10.50;99.90;;;;;;5059892;28;20954;-79
2022/06/04 00:33:25;;;;;;;0.10;0.10;;;10.50;99.90;;;;;;5062876;28;20440;-79
2022/06/04 00:35:54;;;;;;;0.20;0.20;;;10.30;99.90;;;;;;5056163;28;20251;-79
2022/06/04 00:38:21;;;;;;;0.20;0.20;;;10.30;99.90;;;;;;5049326;28;21037;-79
2022/06/04 00:40:53;;;;;;;0.20;0.20;;;10.30;99.90;;;;;;5052307;28;20472;-78
2022/06/04 00:43:20;;;;;;;0.20;0.20;;;10.30;99.90;;;;;;5059406;28;20444;-79
2022/06/04 00:46:04;;;;;;;0.20;0.20;;;10.40;99.90;;;;;;5056867;28;20520;-79
2022/06/04 00:48:30;;;;;;;0.20;0.20;;;10.30;99.90;;;;;;5068547;28;20521;-79
2022/06/04 00:50:55;;;;;;;0.20;0.20;;;10.30;99.90;;;;;;5046869;28;20967;-79
2022/06/04 00:53:21;;;;;;;0.20;0.20;;;10.30;99.90;;;;;;5063537;28;20193;-79
2022/06/04 00:56:09;;;;;;;0.10;0.10;;;10.20;99.90;;;;;;5063230;28;20187;-79
2022/06/04 00:59:02;;;;;;;0.20;0.20;;;10.10;99.90;;;;;;5044131;28;20986;-79
2022/06/04 01:01:38;;;;;;;0.20;0.20;;;10.10;99.90;;;;;;5058898;28;20450;-79
2022/06/04 01:07:24;;;;;;;0.20;0.20;;;10.10;99.90;;;;;;5061176;28;20569;-79
2022/06/04 01:10:14;;;;;;;0.20;0.20;;;10.10;99.90;;;;;;5043189;28;20476;-79
2022/06/04 01:12:51;;;;;;;0.20;0.20;;;10.10;99.90;;;;;;5052790;28;20449;-79
2022/06/04 01:15:33;;;;;;;0.20;0.20;;;10.10;99.90;;;;;;5044033;28;20843;-79
2022/06/04 01:18:17;;;;;;;0.20;0.20;;;10.20;99.90;;;;;;5064148;28;20476;-79
2022/06/04 01:20:55;;;;;;;0.20;0.20;;;10.20;99.90;;;;;;5063817;28;20444;-79
2022/06/04 01:23:55;;;;;;;0.20;0.20;;;10.30;99.90;;;;;;5063425;28;20465;-79
2022/06/04 01:26:51;;;;;;;0.20;0.20;;;10.40;99.90;;;;;;5061533;28;20935;-79
2022/06/04 01:29:20;;;;;;;0.20;0.20;;;10.40;99.90;;;;;;5062985;28;20575;-79
2022/06/04 01:32:04;;;;;;;0.20;0.20;;;10.40;99.90;;;;;;5059440;28;20494;-78
2022/06/04 01:34:36;;;;;;;0.13;0.13;;;10.50;99.90;;;;;;5060411;28;20487;-79
2022/06/04 01:37:08;;;;;;;0.17;0.17;;;10.50;99.90;;;;;;5062431;28;20523;-79
2022/06/04 01:42:24;;;;;;;0.20;0.20;;;10.60;99.90;;;;;;5063291;28;20435;-79
2022/06/04 01:44:51;;;;;;;0.20;0.20;;;10.70;99.90;;;;;;5061280;28;20497;-79
2022/06/04 01:47:20;;;;;;;0.20;0.20;;;10.80;99.90;;;;;;5066250;28;20493;-79
2022/06/04 01:49:52;;;;;;;0.20;0.20;;;10.80;99.90;;;;;;5063187;28;20475;-79
2022/06/04 01:52:31;;;;;;;0.20;0.20;;;10.80;99.90;;;;;;5064008;28;20435;-79
2022/06/04 01:55:36;;;;;;;0.10;0.10;;;10.90;99.90;;;;;;5039806;28;20436;-79
2022/06/04 01:58:05;;;;;;;0.20;0.20;;;10.80;99.90;;;;;;5017129;28;20448;-79
2022/06/04 02:00:54;;;;;;;0.10;0.10;;;10.90;99.90;;;;;;5058642;28;20448;-78
2022/06/04 02:03:37;;;;;;;0.17;0.17;;;10.80;99.90;;;;;;5059617;28;20440;-78
2022/06/04 02:06:17;;;;;;;0.10;0.10;;;10.90;99.90;;;;;;5053126;28;20537;-78
2022/06/04 02:08:52;;;;;;;0.20;0.20;;;10.90;99.90;;;;;;5056086;28;20498;-79
2022/06/04 02:11:20;;;;;;;0.10;0.10;;;11.00;99.90;;;;;;5056871;28;20435;-79
2022/06/04 02:13:49;;;;;;;0.20;0.20;;;10.90;99.90;;;;;;5053419;28;20815;-78
2022/06/04 02:16:20;;;;;;;0.20;0.20;;;11.00;99.90;;;;;;5059252;28;20924;-78
2022/06/04 02:18:47;;;;;;;0.20;0.20;;;10.90;99.90;;;;;;5043478;28;20451;-78
2022/06/04 02:21:15;;;;;;;0.10;0.10;;;10.90;99.90;;;;;;5061812;28;20428;-78
2022/06/04 02:23:41;;;;;;;0.20;0.20;;;10.90;99.90;;;;;;5061312;28;20465;-78
2022/06/04 02:26:07;;;;;;;0.10;0.10;;;11.00;99.90;;;;;;5054298;28;20439;-78
2022/06/04 02:28:33;;;;;;;0.17;0.17;;;11.00;99.90;;;;;;5061602;28;20224;-78
2022/06/04 02:31:34;;;;;;;0.17;0.17;;;11.00;99.90;;;;;;5056907;28;20232;-78
2022/06/04 02:34:15;;;;;;;0.20;0.20;;;11.00;99.90;;;;;;5060083;28;20657;-78
2022/06/04 02:36:43;;;;;;;0.20;0.20;;;10.90;99.90;;;;;;5063143;28;20526;-78
2022/06/04 02:39:20;;;;;;;0.10;0.10;;;10.90;99.90;;;;;;5063001;28;20432;-78
2022/06/04 02:41:52;;;;;;;0.20;0.20;;;11.00;99.90;;;;;;5044645;28;20567;-78
2022/06/04 02:44:26;;;;;;;0.10;0.10;;;10.90;99.90;;;;;;5052843;28;20800;-78
2022/06/04 02:47:01;;;;;;;0.20;0.20;;;10.80;99.90;;;;;;5059955;28;20449;-78
2022/06/04 02:49:57;;;;;;;0.20;0.20;;;10.90;99.90;;;;;;5041911;28;20502;-78
2022/06/04 02:52:24;;;;;;;0.10;0.10;;;10.80;99.90;;;;;;5065084;28;20463;-79
2022/06/04 02:54:57;;;;;;;0.10;0.10;;;10.80;99.90;;;;;;5063476;28;21064;-79
2022/06/04 02:57:26;;;;;;;0.10;0.10;;;10.80;99.90;;;;;;5062194;28;20452;-79
2022/06/04 02:59:53;;;;;;;0.10;0.10;;;10.90;99.90;;;;;;5053364;28;20450;-78
2022/06/04 03:02:20;;;;;;;0.10;0.10;;;10.80;99.90;;;;;;5045348;28;20531;-78
2022/06/04 03:04:51;;;;;;;0.10;0.10;;;10.80;99.90;;;;;;5045086;28;20517;-79
2022/06/04 03:07:19;;;;;;;0.10;0.10;;;10.90;99.90;;;;;;5064076;28;20479;-79
2022/06/04 03:09:46;;;;;;;0.20;0.20;;;10.80;99.90;;;;;;5065494;28;20850;-79
2022/06/04 03:12:12;;;;;;;0.10;0.10;;;10.90;99.90;;;;;;5050078;28;20443;-79
2022/06/04 03:14:37;;;;;;;0.20;0.20;;;10.90;99.90;;;;;;5039291;28;20953;-78
2022/06/04 03:17:09;;;;;;;0.10;0.10;;;10.90;99.90;;;;;;5063562;28;20186;-79
2022/06/04 03:19:35;;;;;;;0.20;0.20;;;10.90;99.90;;;;;;5067784;28;20200;-79
2022/06/04 03:22:01;;;;;;;0.20;0.20;;;11.00;99.90;;;;;;5046997;28;20450;-79
2022/06/04 03:24:27;;;;;;;0.20;0.20;;;11.00;99.90;;;;;;5048639;28;20188;-79
2022/06/04 03:26:52;;;;;;;0.10;0.10;;;11.10;99.90;;;;;;5063727;28;20261;-79
2022/06/04 03:29:18;;;;;;;0.20;0.20;;;11.10;99.90;;;;;;5058481;28;20503;-79
2022/06/04 03:31:43;;;;;;;0.20;0.20;;;11.10;99.90;;;;;;5063707;28;20252;-79
2022/06/04 03:34:09;;;;;;;0.10;0.10;;;11.10;99.90;;;;;;5065607;28;20218;-79
2022/06/04 03:36:35;;;;;;;0.10;0.10;;;11.10;99.90;;;;;;5042961;28;20653;-79
2022/06/04 03:39:02;;;;;;;0.10;0.10;;;11.20;99.90;;;;;;5061453;28;20190;-79
2022/06/04 03:41:28;;;;;;;0.20;0.20;;;11.10;99.90;;;;;;5065042;28;20428;-78
2022/06/04 03:43:53;;;;;;;0.20;0.20;;;11.20;99.90;;;;;;5061818;28;20619;-78
2022/06/04 03:46:24;;;;;;;0.10;0.10;;;11.10;99.90;;;;;;5064459;28;20186;-78
2022/06/04 03:48:54;;;;;;;0.20;0.20;;;11.10;99.90;;;;;;5062479;28;20214;-78
2022/06/04 03:51:20;;;;;;;0.10;0.10;;;11.10;99.90;;;;;;5061207;28;20505;-78
2022/06/04 03:53:45;;;;;;;0.20;0.20;;;11.10;99.90;;;;;;5067130;28;20449;-78
2022/06/04 03:56:11;;;;;;;0.10;0.10;;;11.10;99.90;;;;;;5064865;28;20282;-79
2022/06/04 03:58:36;;;;;;;0.10;0.10;;;11.20;99.90;;;;;;5056408;28;20190;-79
2022/06/04 04:01:24;;;;;;;0.10;0.10;;;11.10;99.90;;;;;;5061368;28;20535;-79
2022/06/04 04:03:50;;;;;;;0.10;0.10;;;11.10;99.90;;;;;;5060712;28;20204;-79
2022/06/04 04:06:22;;;;;;;0.20;0.20;;;11.10;99.90;;;;;;5067881;28;20451;-79
2022/06/04 04:08:48;;;;;;;0.10;0.10;;;11.20;99.90;;;;;;5042724;28;20523;-78
2022/06/04 04:11:17;;;;;;;0.20;0.20;;;11.20;99.90;;;;;;5064254;28;20436;-78
2022/06/04 04:13:43;;;;;;;0.20;0.20;;;11.10;99.90;;;;;;5060479;28;20811;-78
2022/06/04 04:16:09;;;;;;;0.10;0.10;;;11.00;99.90;;;;;;5067420;28;20493;-78
2022/06/04 04:18:35;;;;;;;0.20;0.20;;;11.00;99.90;;;;;;5058456;28;20468;-79
2022/06/04 04:21:10;;;;;;;0.10;0.10;;;11.00;99.90;;;;;;5060461;28;20448;-79
2022/06/04 04:23:36;;;;;;;0.20;0.20;;;11.10;99.90;;;;;;5063236;28;20185;-79
2022/06/04 04:26:04;;;;;;;0.20;0.20;;;11.10;99.90;;;;;;5062584;28;20436;-78
2022/06/04 04:28:30;;;;;;;0.20;0.20;;;11.20;99.90;;;;;;5058662;28;20949;-78
2022/06/04 04:30:56;;;;;;;0.20;0.20;;;11.20;99.90;;;;;;5062052;28;20967;-79
2022/06/04 04:33:22;;;;;;;0.10;0.10;;;11.10;99.90;;;;;;5058937;28;20340;-79
2022/06/04 04:35:48;;;;;;;0.10;0.10;;;11.20;99.90;;;;;;5058668;28;20569;-78
2022/06/04 04:38:15;;;;;;;0.10;0.10;;;11.20;99.90;;;;;;5076296;28;20639;-78
2022/06/04 04:40:42;;;;;;;0.20;0.20;;;11.30;99.90;;;;;;5074173;28;21194;-78
2022/06/04 04:43:08;;;;;;;0.10;0.10;;;11.40;99.90;;;;;;5057187;28;20519;-78
2022/06/04 04:45:34;;;;;;;0.10;0.10;;;11.40;99.90;;;;;;5059823;28;20440;-78
2022/06/04 04:48:00;;;;;;;0.10;0.10;;;11.40;99.90;;;;;;5051276;28;20577;-79
2022/06/04 04:50:32;;;;;;;0.10;0.10;;;11.40;99.90;;;;;;5052779;28;20448;-78
2022/06/04 04:53:00;;;;;;;0.10;0.10;;;11.50;99.90;;;;;;5055283;28;20182;-78
2022/06/04 04:55:27;;;;;;;0.10;0.10;;;11.60;99.90;;;;;;5057456;28;20468;-78
2022/06/04 04:57:52;;;;;;;0.10;0.10;;;11.60;99.90;;;;;;5060206;28;20868;-77
2022/06/04 05:00:19;;;;;;;0.10;0.10;;;11.60;99.90;;;;;;5032196;28;20891;-77
2022/06/04 05:02:45;;;;;;;0.10;0.10;;;11.70;99.90;;;;;;5063541;28;20544;-78
2022/06/04 05:05:12;;;;;;;0.10;0.10;;;11.80;99.90;;;;;;5070899;28;20456;-78
2022/06/04 05:07:39;;;;;;;0.20;0.20;;;11.80;99.90;;;;;;5061724;28;20476;-79
2022/06/04 05:10:05;;;;;;;0.10;0.10;;;11.80;99.90;;;;;;5064924;28;20570;-79
2022/06/04 05:12:31;;;;;;;0.10;0.10;;;11.90;99.90;;;;;;5062661;28;20818;-79
2022/06/04 05:14:56;;;;;;;0.10;0.10;;;11.90;99.90;;;;;;5065633;28;20448;-78
2022/06/04 05:17:22;;;;;;;0.10;0.10;;;11.90;99.90;;;;;;5061351;28;20213;-78
2022/06/04 05:19:47;;;;;;;0.10;0.10;;;12.00;99.90;;;;;;5053183;28;20235;-78
2022/06/04 05:22:13;;;;;;;0.10;0.10;;;12.00;99.90;;;;;;5067790;28;20223;-79
2022/06/04 05:24:39;;;;;;;0.10;0.10;;;12.00;99.90;;;;;;5067383;28;20598;-78
2022/06/04 05:27:08;;;;;;;0.10;0.10;;;12.10;99.90;;;;;;5050523;28;20234;-78
2022/06/04 05:29:34;;;;;;;0.10;0.10;;;12.20;99.90;;;;;;5063522;28;20740;-78
2022/06/04 05:32:02;;;;;;;0.10;0.10;;;12.20;99.90;;;;;;5065423;28;20438;-77
2022/06/04 05:34:28;;;;;;;0.10;0.10;;;12.30;99.90;;;;;;5072800;28;20484;-78
2022/06/04 05:36:54;;;;;;;0.10;0.10;;;12.40;99.90;;;;;;5046056;28;20444;-78
2022/06/04 05:39:21;;;;;;;0.10;0.10;;;12.40;99.90;;;;;;5068583;28;20443;-79
2022/06/04 05:41:46;;;;;;;0.10;0.10;;;12.40;99.90;;;;;;5068442;28;20448;-78
2022/06/04 05:44:12;;;;;;;0.10;0.10;;;12.50;99.90;;;;;;5068824;28;20440;-78
2022/06/04 05:46:42;;;;;;;0.20;0.20;;;12.50;99.90;;;;;;5047977;28;20201;-78
2022/06/04 05:49:11;;;;;;;0.10;0.10;;;12.60;99.90;;;;;;5068612;28;20209;-78
2022/06/04 05:51:38;;;;;;;0.10;0.10;;;12.70;99.90;;;;;;5067275;28;20531;-78
2022/06/04 05:54:03;;;;;;;0.10;0.10;;;12.70;99.90;;;;;;5047616;28;20444;-77
2022/06/04 05:56:32;;;;;;;0.10;0.10;;;12.80;99.90;;;;;;5063148;28;20440;-78
2022/06/04 05:59:00;;;;;;;0.10;0.10;;;12.90;99.90;;;;;;5069053;28;20452;-78
2022/06/04 06:01:28;;;;;;;0.10;0.10;;;12.90;99.90;;;;;;5065838;28;20437;-78
2022/06/04 06:03:55;;;;;;;0.10;0.10;;;12.80;99.90;;;;;;5083400;28;20439;-79
2022/06/04 06:06:23;;;;;;;0.10;0.10;;;12.80;99.90;;;;;;5063657;28;20951;-78
2022/06/04 06:08:49;;;;;;;0.10;0.10;;;12.90;99.90;;;;;;5066825;28;20495;-79
2022/06/04 06:11:17;;;;;;;0.10;0.10;;;13.00;99.90;;;;;;5066188;28;20506;-79
2022/06/04 06:13:43;;;;;;;0.10;0.10;;;13.00;99.90;;;;;;5070750;28;20589;-79
2022/06/04 06:16:15;;;;;;;0.10;0.10;;;13.00;99.90;;;;;;5065686;28;20992;-78
2022/06/04 06:18:42;;;;;;;0.10;0.10;;;13.30;99.90;;;;;;5085784;28;20572;-79
2022/06/04 06:21:10;;;;;;;0.10;0.10;;;13.50;99.90;;;;;;5069030;28;20456;-79
2022/06/04 06:23:36;;;;;;;0.10;0.10;;;13.60;99.90;;;;;;5069949;28;20413;-79
2022/06/04 06:26:06;;;;;;;0.10;0.10;;;13.50;99.90;;;;;;5067945;28;20455;-79
2022/06/04 06:28:34;;;;;;;0.10;0.10;;;13.50;99.90;;;;;;5068686;28;20625;-79
2022/06/04 06:30:59;;;;;;;0.10;0.10;;;13.50;99.90;;;;;;5064350;28;20581;-79
2022/06/04 06:33:25;;;;;;;0.10;0.10;;;13.40;99.90;;;;;;5067064;28;20532;-78
2022/06/04 06:35:59;;;;;;;0.10;0.10;;;13.60;99.90;;;;;;5065219;28;20185;-79
2022/06/04 06:38:25;;;;;;;0.10;0.10;;;13.50;99.90;;;;;;5058127;28;20186;-80
2022/06/04 06:40:53;;;;;;;0.10;0.10;;;13.50;99.90;;;;;;5059778;28;20503;-80
2022/06/04 06:43:19;;;;;;;0.10;0.10;;;13.40;99.90;;;;;;5050643;28;20858;-80
2022/06/04 06:45:44;;;;;;;0.10;0.10;;;13.50;99.90;;;;;;5071415;28;20448;-79
2022/06/04 06:48:10;;;;;;;0.10;0.10;;;13.60;99.90;;;;;;5068817;28;20489;-80
2022/06/04 06:50:36;;;;;;;0.10;0.10;;;13.50;99.90;;;;;;5048133;28;20315;-79
2022/06/04 06:53:02;;;;;;;0.10;0.10;;;13.60;99.90;;;;;;5051772;28;20493;-78
2022/06/04 06:55:28;;;;;;;0.10;0.10;;;14.00;99.90;;;;;;5075212;28;21054;-77
2022/06/04 06:57:53;;;;;;;0.10;0.10;;;14.00;99.90;;;;;;5049557;28;20190;-78
2022/06/04 07:00:19;;;;;;;0.10;0.10;;;14.00;99.90;;;;;;5052280;28;20225;-78
2022/06/04 07:02:44;;;;;;;0.10;0.10;;;14.10;99.90;;;;;;5070983;28;20189;-80
2022/06/04 07:05:10;;;;;;;0.10;0.10;;;14.20;99.90;;;;;;5066103;28;20198;-80
2022/06/04 07:07:36;;;;;;;0.10;0.10;;;14.40;99.90;;;;;;5052237;28;20230;-80
2022/06/04 07:10:02;;;;;;;0.10;0.10;;;14.80;99.90;;;;;;5048426;28;20369;-80
2022/06/04 07:12:28;;;;;;;0.10;0.10;;;15.00;99.90;;;;;;5068483;28;20542;-80
2022/06/04 07:14:53;;;;;;;0.10;0.10;;;15.00;99.90;;;;;;5067805;28;20452;-80
2022/06/04 07:17:19;;;;;;;0.10;0.10;;;14.80;99.90;;;;;;5067161;28;20653;-81
2022/06/04 07:19:44;;;;;;;0.10;0.10;;;14.60;99.90;;;;;;5049299;28;20646;-81
2022/06/04 07:22:10;;;;;;;0.10;0.10;;;14.40;99.90;;;;;;5063784;28;20193;-80
2022/06/04 07:24:36;;;;;;;0.10;0.10;;;14.30;99.90;;;;;;5070049;28;20213;-80
2022/06/04 07:27:02;;;;;;;0.10;0.10;;;14.20;99.90;;;;;;5068653;28;20428;-77
2022/06/04 07:29:28;;;;;;;0.10;0.10;;;14.00;99.90;;;;;;5071785;28;20304;-78
2022/06/04 07:31:54;;;;;;;0.10;0.10;;;14.30;99.90;;;;;;5071372;28;20193;-79
2022/06/04 07:34:20;;;;;;;0.10;0.10;;;14.60;99.90;;;;;;5069417;28;20439;-80
2022/06/04 07:36:45;;;;;;;0.10;0.10;;;15.00;99.90;;;;;;5061397;28;20189;-80
2022/06/04 07:39:14;;;;;;;0.10;0.10;;;14.70;99.90;;;;;;5071639;28;20235;-80
2022/06/04 07:41:43;;;;;;;0.10;0.10;;;14.40;99.90;;;;;;5070017;28;20630;-80
2022/06/04 07:44:09;;;;;;;0.10;0.10;;;14.40;99.90;;;;;;5071780;28;20486;-80
2022/06/04 07:46:36;;;;;;;0.10;0.10;;;14.30;99.90;;;;;;5071416;28;20440;-80
2022/06/04 07:49:04;;;;;;;0.10;0.10;;;14.80;99.90;;;;;;5069451;28;20471;-80
2022/06/04 07:51:33;;;;;;;0.10;0.10;;;15.20;99.90;;;;;;5067731;28;20999;-80
2022/06/04 07:53:59;;;;;;;0.10;0.10;;;15.50;99.90;;;;;;5066291;28;20439;-79
2022/06/04 07:56:24;;;;;;;0.10;0.10;;;15.80;99.90;;;;;;5070168;28;21711;-80
2022/06/04 07:58:50;;;;;;;0.10;0.10;;;15.80;99.90;;;;;;5069030;28;20908;-81
2022/06/04 08:01:18;;;;;;;0.10;0.10;;;15.80;99.90;;;;;;5068805;28;20224;-79
2022/06/04 08:03:46;;;;;;;0.20;0.20;;;15.90;99.90;;;;;;5071957;28;20764;-81
2022/06/04 08:06:13;;;;;;;0.10;0.10;;;16.10;99.90;;;;;;5071158;28;20451;-80
2022/06/04 08:08:39;;;;;;;0.20;0.20;;;15.60;99.90;;;;;;5069360;28;20484;-80
2022/06/04 08:11:30;;;;;;;0.10;0.10;;;15.90;99.90;;;;;;5068415;28;20527;-79
2022/06/04 08:13:51;;;;;;;0.10;0.10;;;16.10;99.90;;;;;;5079217;28;21007;-79
2022/06/04 08:16:17;;;;;;;0.10;0.10;;;16.00;99.90;;;;;;5069281;28;20440;-79
2022/06/04 08:18:43;;;;;;;0.10;0.10;;;16.20;99.90;;;;;;5046898;28;20445;-80
2022/06/04 08:21:09;;;;;;;0.10;0.10;;;16.50;99.90;;;;;;5042083;28;20525;-80
2022/06/04 08:23:34;;;;;;;0.10;0.10;;;16.70;99.90;;;;;;5040267;28;20589;-79
2022/06/04 08:26:00;;;;;;;0.10;0.10;;;16.90;99.90;;;;;;5039312;28;20190;-79
2022/06/04 08:28:26;;;;;;;0.10;0.10;;;16.50;99.90;;;;;;5040302;28;20255;-79
2022/06/04 08:31:05;;;;;;;0.10;0.10;;;16.30;99.90;;;;;;5040323;28;20186;-80
2022/06/04 08:33:30;;;;;;;0.10;0.10;;;16.10;99.90;;;;;;5044193;28;20622;-81
2022/06/04 08:35:56;;;;;;;0.10;0.10;;;15.60;99.90;;;;;;5038905;28;20971;-80
2022/06/04 08:38:22;;;;;;;0.10;0.10;;;15.50;99.90;;;;;;5041590;28;20217;-80
2022/06/04 08:40:54;;;;;;;0.10;0.10;;;15.60;99.90;;;;;;5037685;28;20186;-80
2022/06/04 08:43:40;;;;;;;0.10;0.10;;;16.10;99.90;;;;;;5039217;28;20193;-80
2022/06/04 08:46:16;;;;;;;0.10;0.10;;;16.50;99.90;;;;;;5066401;28;20444;-80
2022/06/04 08:48:43;;;;;;;0.10;0.10;;;16.80;99.90;;;;;;5051691;28;20508;-80
2022/06/04 08:51:22;;;;;;;0.10;0.10;;;16.70;99.90;;;;;;5062415;28;20494;-80
2022/06/04 08:53:52;;;;;;;0.10;0.10;;;17.10;99.90;;;;;;5039507;28;20455;-79
2022/06/04 08:59:37;;;;;;;0.10;0.10;;;15.70;99.90;;;;;;5040281;28;20479;-80
2022/06/04 09:02:10;;;;;;;0.10;0.10;;;16.10;99.90;;;;;;5067500;28;20949;-81
2022/06/04 09:05:10;;;;;;;0.10;0.10;;;16.00;99.90;;;;;;5070196;28;20448;-80
2022/06/04 09:07:44;;;;;;;0.10;0.10;;;16.20;99.90;;;;;;5051149;28;20990;-81
2022/06/04 09:10:17;;;;;;;0.10;0.10;;;17.20;99.90;;;;;;5069023;28;20483;-81
2022/06/04 09:13:08;;;;;;;0.10;0.10;;;17.80;99.90;;;;;;5065598;28;20444;-81
2022/06/04 09:15:44;;;;;;;0.10;0.00;;;18.10;99.90;;;;;;5035579;28;20453;-80
2022/06/04 09:18:20;;;;;;;0.10;0.00;;;18.00;99.90;;;;;;5038631;28;20804;-81
2022/06/04 09:20:49;;;;;;;0.10;0.10;;;18.10;99.90;;;;;;5065174;28;20562;-81
2022/06/04 09:23:22;;;;;;;0.10;0.10;;;18.30;99.90;;;;;;5050087;28;20443;-81
2022/06/04 09:26:12;;;;;;;0.10;0.00;;;18.60;99.90;;;;;;5063313;28;20525;-81
2022/06/04 09:29:13;;;;;;;0.10;0.10;;;18.70;99.90;;;;;;5077731;28;20468;-81
2022/06/04 09:32:03;;;;;;;0.10;0.10;;;17.50;99.90;;;;;;5064615;28;20459;-81
2022/06/04 09:34:45;;;;;;;0.10;0.10;;;18.40;99.90;;;;;;5060013;28;20861;-81
2022/06/04 09:37:11;;;;;;;0.10;0.10;;;18.60;99.90;;;;;;5065966;28;20451;-82
2022/06/04 09:39:40;;;;;;;0.10;0.10;;;19.00;99.90;;;;;;5068618;28;20440;-81
2022/06/04 09:42:22;;;;;;;0.10;0.00;;;19.10;99.90;;;;;;5065330;28;20431;-81
2022/06/04 09:45:01;;;;;;;0.10;0.00;;;19.30;99.90;;;;;;5075054;28;21207;-81
2022/06/04 09:47:26;;;;;;;0.10;0.00;;;18.60;99.90;;;;;;5060288;28;20428;-81
2022/06/04 09:49:57;;;;;;;0.10;0.10;;;18.40;99.90;;;;;;5066039;28;20838;-82
2022/06/04 09:52:43;;;;;;;0.10;0.00;;;18.00;99.90;;;;;;5066433;28;20239;-81
2022/06/04 09:55:22;;;;;;;0.10;0.00;;;18.00;99.90;;;;;;5064878;28;20435;-81
2022/06/04 09:57:58;;;;;;;0.10;0.00;;;17.90;99.90;;;;;;5064897;28;20469;-80
2022/06/04 10:00:32;;;;;;;0.10;0.10;;;18.10;99.90;;;;;;5051871;28;20441;-81
2022/06/04 10:03:10;;;;;;;0.10;0.00;;;18.20;99.90;;;;;;5065738;28;20451;-80
2022/06/04 10:05:35;;;;;;;0.10;0.10;;;17.80;99.90;;;;;;5050375;28;21028;-80
2022/06/04 10:08:11;;;;;;;0.10;0.10;;;18.00;99.90;;;;;;5066293;28;20609;-80
2022/06/04 10:10:44;;;;;;;0.10;0.10;;;18.40;99.90;;;;;;5070329;28;20270;-81
2022/06/04 10:16:17;;;;;;;0.10;0.00;;;19.00;99.90;;;;;;5066788;28;20499;-81
2022/06/04 10:19:13;;;;;;;0.10;0.10;;;19.40;99.90;;;;;;5067192;28;20779;-81
2022/06/04 10:21:41;;;;;;;0.10;0.00;;;19.20;99.90;;;;;;5066178;28;20450;-80
2022/06/04 10:24:19;;;;;;;0.10;0.00;;;19.40;99.90;;;;;;5068986;28;20443;-82
2022/06/04 10:27:03;;;;;;;0.10;0.00;;;19.60;99.90;;;;;;5057179;28;20454;-81
2022/06/04 10:29:41;;;;;;;0.10;0.00;;;19.10;99.90;;;;;;5040844;28;20547;-81
2022/06/04 10:32:50;;;;;;;0.10;0.00;;;19.30;99.90;;;;;;5050230;28;20436;-80
2022/06/04 10:35:19;;;;;;;0.10;0.00;;;18.90;99.90;;;;;;5059536;28;20451;-81
2022/06/04 10:38:09;;;;;;;0.10;0.00;;;19.20;99.90;;;;;;5065093;28;20447;-81
2022/06/04 10:41:03;;;;;;;0.10;0.00;;;19.90;99.90;;;;;;5064219;28;20455;-82
2022/06/04 10:44:09;;;;;;;0.10;0.00;;;20.20;99.90;;;;;;5074867;28;20463;-82
2022/06/04 10:46:53;;;;;;;0.10;0.00;;;19.40;99.90;;;;;;5044186;28;20455;-82
2022/06/04 10:49:30;;;;;;;0.10;0.00;;;18.80;99.90;;;;;;5065655;28;21125;-80
2022/06/04 10:52:19;;;;;;;0.10;0.10;;;18.80;99.90;;;;;;5063124;28;20493;-80
2022/06/04 10:54:50;;;;;;;0.10;0.00;;;19.40;99.90;;;;;;5059644;28;20812;-83
2022/06/04 10:57:22;;;;;;;0.10;0.00;;;18.80;99.90;;;;;;5062425;28;20444;-81
2022/06/04 10:59:56;;;;;;;0.10;0.00;;;18.80;99.90;;;;;;5064240;28;20444;-81
2022/06/04 11:02:46;;;;;;;0.10;0.00;;;19.60;99.90;;;;;;5071105;28;20443;-81
2022/06/04 11:05:17;;;;;;;0.10;0.00;;;20.50;99.90;;;;;;5067561;28;20452;-82
2022/06/04 11:07:57;;;;;;;0.10;0.00;;;21.10;99.90;;;;;;5057558;28;20533;-81
2022/06/04 11:10:45;;;;;;;0.10;0.00;;;21.30;99.90;;;;;;5048575;28;20578;-81
2022/06/04 11:13:31;;;;;;;0.10;0.00;;;21.00;99.90;;;;;;5047455;28;20442;-81
2022/06/04 11:16:04;;;;;;;0.10;0.00;;;21.50;99.90;;;;;;5035214;28;20543;-83
2022/06/04 11:18:41;;;;;;;0.00;0.00;;;21.50;99.90;;;;;;5049685;28;20456;-80
2022/06/04 11:21:21;;;;;;;0.00;0.00;;;20.90;99.90;;;;;;5045776;28;20441;-79
2022/06/04 11:24:02;;;;;;;0.00;0.00;;;21.40;99.90;;;;;;5049623;28;20483;-80
2022/06/04 11:26:41;;;;;;;0.00;0.00;;;21.30;99.90;;;;;;5039096;28;20437;-81
2022/06/04 11:29:09;;;;;;;0.00;0.00;;;21.50;99.90;;;;;;5049363;28;20476;-79
2022/06/04 11:32:04;;;;;;;0.00;0.00;;;21.40;99.90;;;;;;5045383;28;20944;-80
2022/06/04 11:34:36;;;;;;;0.00;0.00;;;21.40;99.90;;;;;;5049452;28;20812;-81
2022/06/04 11:37:20;;;;;;;0.00;0.00;;;21.60;99.90;;;;;;5045941;28;20447;-87
2022/06/04 11:40:11;;;;;;;0.00;0.00;;;22.10;99.90;;;;;;5049926;28;20444;-88
2022/06/04 11:42:55;;;;;;;0.00;0.00;;;22.30;99.90;;;;;;5049003;28;21062;-89
2022/06/04 11:45:40;;;;;;;0.00;0.00;;;22.20;99.90;;;;;;5052075;28;20455;-86
2022/06/04 11:48:27;;;;;;;0.00;0.00;;;22.20;99.90;;;;;;5047251;28;20921;-81
2022/06/04 11:51:14;;;;;;;0.00;0.00;;;22.40;99.90;;;;;;5048529;28;20552;-83
2022/06/04 11:53:59;;;;;;;0.00;0.00;;;22.50;99.90;;;;;;5044571;28;20538;-89
2022/06/04 11:56:44;;;;;;;0.00;0.00;;;22.50;99.90;;;;;;5041822;28;20807;-83
2022/06/04 11:59:15;;;;;;;0.00;0.00;;;22.00;99.90;;;;;;5054060;28;20447;-82
2022/06/04 12:01:50;;;;;;;0.00;0.00;;;22.30;99.90;;;;;;5044604;28;20452;-82
2022/06/04 12:04:20;;;;;;;0.00;0.00;;;22.70;99.90;;;;;;5045892;28;20448;-86
2022/06/04 12:06:54;;;;;;;0.00;0.00;;;22.40;99.90;;;;;;5047156;28;20441;-81
2022/06/04 12:09:28;;;;;;;0.00;0.00;;;22.20;99.90;;;;;;5046270;28;21017;-83
2022/06/04 12:12:19;;;;;;;0.00;0.00;;;22.00;99.90;;;;;;5047139;28;21238;-81
2022/06/04 12:14:54;;;;;;;0.00;0.00;;;22.00;99.90;;;;;;5048401;28;20458;-82
2022/06/04 12:17:45;;;;;;;0.00;0.00;;;22.20;99.90;;;;;;5064956;28;20502;-82
2022/06/04 12:26:26;;;;;;;0.00;0.00;;;22.70;99.90;;;;;;5068359;28;20446;-80
2022/06/04 12:28:54;;;;;;;0.00;0.00;;;22.40;99.90;;;;;;5069112;28;20476;-80
2022/06/04 12:31:37;;;;;;;0.00;0.00;;;21.90;99.90;;;;;;5053967;28;20462;-82
2022/06/04 12:34:34;;;;;;;0.00;0.00;;;22.30;99.90;;;;;;5067469;28;20428;-80
2022/06/04 12:37:01;;;;;;;0.00;0.00;;;22.70;99.90;;;;;;5062372;28;20444;-82
2022/06/04 12:39:35;;;;;;;0.00;0.00;;;22.50;99.90;;;;;;5066422;28;20447;-82
2022/06/04 12:42:30;;;;;;;0.00;0.00;;;22.50;99.90;;;;;;5068843;28;20440;-80
2022/06/04 12:44:59;;;;;;;0.00;0.00;;;23.10;99.90;;;;;;5066247;28;20497;-82
2022/06/04 12:47:28;;;;;;;0.00;0.00;;;22.90;99.90;;;;;;5066549;28;20444;-82
2022/06/04 12:49:57;;;;;;;0.00;0.00;;;23.00;99.90;;;;;;5068674;28;20479;-82
2022/06/04 12:52:57;;;;;;;0.00;0.00;;;23.20;99.90;;;;;;5063782;28;20514;-86
2022/06/04 12:55:31;;;;;;;0.00;0.00;;;23.20;99.90;;;;;;5064184;28;20440;-81
2022/06/04 12:58:01;;;;;;;0.00;0.00;;;23.50;99.90;;;;;;5070486;28;20424;-82
2022/06/04 13:00:35;;;;;;;0.00;0.00;;;22.80;99.90;;;;;;5067004;28;20436;-80
2022/06/04 13:03:07;;;;;;;0.00;0.00;;;22.30;99.90;;;;;;5051774;28;20436;-83
2022/06/04 13:05:35;;;;;;;0.00;0.00;;;22.60;99.90;;;;;;5067475;28;20792;-80
2022/06/04 13:08:28;;;;;;;0.00;0.00;;;22.10;99.90;;;;;;5066411;28;20476;-85
2022/06/04 13:11:41;;;;;;;0.00;0.00;;;22.60;99.90;;;;;;5050075;28;20461;-86
2022/06/04 13:14:25;;;;;;;0.00;0.00;;;22.20;99.90;;;;;;5052501;28;20869;-82
2022/06/04 13:16:57;;;;;;;0.00;0.00;;;22.00;99.90;;;;;;5091174;28;20918;-81
2022/06/04 13:19:31;;;;;;;0.00;0.00;;;21.70;99.90;;;;;;5091312;28;20891;-83
2022/06/04 13:21:59;;;;;;;0.00;0.00;;;21.30;99.90;;;;;;5081158;28;20481;-82
2022/06/04 13:24:27;;;;;;;0.00;0.00;;;21.20;99.90;;;;;;5080669;28;20435;-83
2022/06/04 13:27:08;;;;;;;0.00;0.00;;;21.30;99.90;;;;;;5085464;28;20423;-84
2022/06/04 13:29:37;;;;;;;0.00;0.00;;;21.50;99.90;;;;;;5050836;28;20479;-83
2022/06/04 13:32:11;;;;;;;0.00;0.00;;;21.10;99.90;;;;;;5032936;28;21003;-82
2022/06/04 13:34:36;;;;;;;0.00;0.00;;;21.40;99.90;;;;;;5058964;28;20450;-82
2022/06/04 13:37:18;;;;;;;0.00;0.00;;;21.40;99.90;;;;;;5070594;28;20812;-83
2022/06/04 13:39:47;;;;;;;0.00;0.00;;;21.00;99.90;;;;;;5070754;28;20166;-83